Time;durP1;ratioP1;P1;durP2;ratioP2;P2;SDS_P1;SDS_P2;PMS_P1;PMS_P2;Temp;Humidity;BMP_temperature;BMP_pressure;BME280_temperature;BME280_humidity;BME280_pressure;Samples;Min_cycle;Max_cycle;Signal;HPM_P1;HPM_P2
2023/07/06 00:02:05;;;;;;;15.45;7.10;;;;;;;16.80;100.00;93039.59;5087099;28;20896;-72
2023/07/06 00:04:31;;;;;;;13.30;7.55;;;;;;;16.66;100.00;93039.28;5083099;28;20127;-72
2023/07/06 00:06:58;;;;;;;12.38;8.32;;;;;;;16.55;100.00;93039.22;5088584;28;20093;-72
2023/07/06 00:09:25;;;;;;;14.63;8.27;;;;;;;16.52;100.00;93039.69;5082545;28;20113;-72
2023/07/06 00:11:52;;;;;;;15.30;8.88;;;;;;;16.53;100.00;93037.91;5082944;28;20532;-71
2023/07/06 00:14:19;;;;;;;15.48;8.05;;;;;;;16.54;100.00;93035.03;5083774;28;20115;-72
2023/07/06 00:16:47;;;;;;;15.00;9.15;;;;;;;16.53;100.00;93043.09;5084657;28;20046;-71
2023/07/06 00:19:19;;;;;;;13.90;9.45;;;;;;;16.40;100.00;93000.22;5085749;28;20453;-72
2023/07/06 00:21:46;;;;;;;13.10;9.38;;;;;;;16.65;100.00;93025.50;5082995;28;20051;-72
2023/07/06 00:24:15;;;;;;;14.32;8.07;;;;;;;16.68;100.00;93027.59;5081314;28;20048;-71
2023/07/06 00:26:42;;;;;;;18.00;9.35;;;;;;;16.70;100.00;93025.53;5079086;28;20562;-72
2023/07/06 00:29:09;;;;;;;17.60;9.93;;;;;;;16.72;100.00;93030.47;5081056;28;20097;-72
2023/07/06 00:31:50;;;;;;;15.55;9.73;;;;;;;16.85;100.00;93020.69;5082769;28;20048;-72
2023/07/06 00:34:19;;;;;;;18.52;10.32;;;;;;;16.99;100.00;93031.38;5075339;28;20076;-72
2023/07/06 00:36:47;;;;;;;13.95;9.52;;;;;;;17.08;100.00;93020.25;5084945;28;20056;-72
2023/07/06 00:39:14;;;;;;;16.88;9.63;;;;;;;17.20;100.00;93021.84;5085940;28;20050;-72
2023/07/06 00:41:43;;;;;;;16.65;9.93;;;;;;;17.22;100.00;93006.81;5085240;28;20051;-72
2023/07/06 00:44:44;;;;;;;14.05;9.18;;;;;;;17.19;100.00;92989.16;5082809;28;20063;-72
2023/07/06 00:47:12;;;;;;;13.02;8.15;;;;;;;17.39;100.00;93018.81;5076864;28;20042;-72
2023/07/06 00:49:42;;;;;;;14.10;8.30;;;;;;;17.46;100.00;93029.72;5083753;28;20043;-72
2023/07/06 00:52:10;;;;;;;11.55;7.43;;;;;;;17.47;100.00;93024.28;5093459;28;20098;-72
2023/07/06 00:54:42;;;;;;;11.50;7.45;;;;;;;17.51;100.00;93032.31;5088398;28;20098;-72
2023/07/06 00:57:12;;;;;;;11.80;7.38;;;;;;;17.49;100.00;93032.56;5084148;28;20048;-72
2023/07/06 00:59:40;;;;;;;13.95;8.15;;;;;;;17.49;100.00;93029.97;5086178;28;20065;-72
2023/07/06 01:02:10;;;;;;;12.77;8.90;;;;;;;17.48;100.00;93033.63;5089076;28;20158;-72
2023/07/06 01:04:36;;;;;;;14.73;7.88;;;;;;;17.49;100.00;93024.00;5092457;28;20097;-72
2023/07/06 01:07:06;;;;;;;16.70;8.70;;;;;;;17.52;100.00;93033.09;5088407;28;20044;-72
2023/07/06 01:09:33;;;;;;;12.27;7.70;;;;;;;17.51;100.00;93037.53;5094143;28;20127;-72
2023/07/06 01:12:02;;;;;;;12.45;8.18;;;;;;;17.47;100.00;93037.25;5092253;28;20119;-72
2023/07/06 01:14:29;;;;;;;12.93;7.82;;;;;;;17.48;100.00;93038.03;5092637;28;20841;-72
2023/07/06 01:17:05;;;;;;;12.70;7.65;;;;;;;17.48;100.00;93031.03;5094506;28;20083;-72
2023/07/06 01:20:14;;;;;;;14.00;6.93;;;;;;;17.47;100.00;93032.06;5089140;28;20053;-72
2023/07/06 01:23:01;;;;;;;15.85;8.43;;;;;;;17.47;100.00;93028.69;5091747;28;20057;-72
2023/07/06 01:25:41;;;;;;;11.10;6.90;;;;;;;17.49;100.00;93031.78;5092997;28;20060;-72
2023/07/06 01:28:30;;;;;;;15.05;7.90;;;;;;;17.52;100.00;93025.31;5085043;28;20478;-72
2023/07/06 01:31:27;;;;;;;13.02;8.25;;;;;;;17.51;100.00;93016.75;5093721;28;20185;-72
2023/07/06 01:33:58;;;;;;;18.23;8.18;;;;;;;17.52;100.00;93025.31;5080975;28;20040;-72
2023/07/06 01:36:33;;;;;;;13.27;8.25;;;;;;;17.52;100.00;93026.09;5089233;28;20093;-72
2023/07/06 01:39:18;;;;;;;13.77;7.50;;;;;;;17.54;100.00;93029.19;5089751;28;20044;-72
2023/07/06 01:41:45;;;;;;;13.85;8.18;;;;;;;17.53;100.00;93027.66;5088614;28;20090;-72
2023/07/06 01:44:15;;;;;;;11.32;7.68;;;;;;;17.48;100.00;93017.25;5087373;28;20093;-72
2023/07/06 01:46:49;;;;;;;11.50;7.00;;;;;;;17.50;100.00;93017.78;5091443;28;20044;-72
2023/07/06 01:49:17;;;;;;;11.50;7.22;;;;;;;17.51;100.00;93019.34;5086386;28;20416;-72
2023/07/06 01:51:56;;;;;;;12.23;8.63;;;;;;;17.52;100.00;93017.50;5085701;28;20075;-73
2023/07/06 01:54:29;;;;;;;11.55;6.95;;;;;;;17.52;100.00;93020.09;5086723;28;20053;-72
2023/07/06 01:57:01;;;;;;;11.75;6.32;;;;;;;17.48;100.00;93030.22;5089422;28;20515;-72
2023/07/06 01:59:32;;;;;;;12.13;6.47;;;;;;;17.43;100.00;93031.00;5084420;28;20493;-72
2023/07/06 02:02:02;;;;;;;10.68;6.85;;;;;;;17.40;100.00;93025.56;5091704;28;20093;-72
2023/07/06 02:04:31;;;;;;;11.77;6.93;;;;;;;17.34;100.00;93016.97;5089403;28;20044;-72
2023/07/06 02:07:01;;;;;;;15.55;6.85;;;;;;;17.36;100.00;93022.69;5093281;28;20040;-72
2023/07/06 02:09:28;;;;;;;10.80;6.85;;;;;;;17.36;100.00;93028.66;5091931;28;20183;-74
2023/07/06 02:11:55;;;;;;;13.95;7.60;;;;;;;17.31;100.00;93025.28;5091851;28;20098;-72
2023/07/06 02:14:23;;;;;;;14.07;6.53;;;;;;;17.27;100.00;93024.22;5093659;28;20040;-72
2023/07/06 02:16:50;;;;;;;11.32;6.07;;;;;;;17.24;100.00;93020.31;5088055;28;20098;-72
2023/07/06 02:19:20;;;;;;;12.40;7.03;;;;;;;17.22;100.00;93017.97;5086932;28;20237;-72
2023/07/06 02:21:49;;;;;;;9.73;6.90;;;;;;;17.19;100.00;93013.31;5089560;28;20059;-73
2023/07/06 02:24:17;;;;;;;9.98;6.90;;;;;;;17.19;100.00;93013.31;5086598;28;20134;-72
2023/07/06 02:26:44;;;;;;;11.63;6.90;;;;;;;17.18;100.00;93016.91;5088420;28;20130;-72
2023/07/06 02:29:10;;;;;;;11.25;7.30;;;;;;;17.14;100.00;93010.69;5095431;28;20036;-73
2023/07/06 02:31:37;;;;;;;13.00;7.30;;;;;;;17.13;100.00;93006.50;5086739;28;20045;-73
2023/07/06 02:34:04;;;;;;;9.30;6.13;;;;;;;17.17;100.00;93007.56;5087928;28;20572;-73
2023/07/06 02:36:32;;;;;;;10.93;7.05;;;;;;;17.15;100.00;93003.69;5094338;28;20132;-73
2023/07/06 02:38:59;;;;;;;10.43;6.63;;;;;;;17.14;100.00;92996.94;5092482;28;20062;-73
2023/07/06 02:41:26;;;;;;;9.32;6.25;;;;;;;17.14;100.00;92996.94;5087393;28;20496;-73
2023/07/06 02:43:53;;;;;;;11.07;6.60;;;;;;;17.13;100.00;92998.72;5089105;28;20087;-73
2023/07/06 02:46:20;;;;;;;10.10;6.65;;;;;;;17.14;100.00;93004.72;5086530;28;20640;-73
2023/07/06 02:48:47;;;;;;;10.15;6.30;;;;;;;17.09;100.00;93008.09;5076228;28;20119;-73
2023/07/06 02:51:13;;;;;;;10.02;6.82;;;;;;;17.07;100.00;93003.13;5081055;28;20525;-73
2023/07/06 02:53:42;;;;;;;10.57;6.40;;;;;;;17.09;100.00;93006.25;5088043;28;20052;-73
2023/07/06 02:56:09;;;;;;;11.82;6.82;;;;;;;17.07;100.00;93000.53;5089541;28;20124;-73
2023/07/06 02:58:35;;;;;;;11.10;6.82;;;;;;;17.08;100.00;93017.66;5087778;28;20052;-73
2023/07/06 03:01:03;;;;;;;10.90;5.85;;;;;;;17.07;100.00;93016.13;5088540;28;20388;-73
2023/07/06 03:03:30;;;;;;;10.95;6.07;;;;;;;17.03;100.00;93019.47;5085293;28;20136;-73
2023/07/06 03:06:01;;;;;;;12.52;6.70;;;;;;;17.02;100.00;93023.84;5082944;28;20044;-73
2023/07/06 03:08:28;;;;;;;9.93;6.13;;;;;;;17.00;100.00;93023.34;5084452;28;20127;-72
2023/07/06 03:10:56;;;;;;;8.05;5.22;;;;;;;16.97;100.00;93016.03;5084854;28;20040;-73
2023/07/06 03:13:28;;;;;;;10.65;5.93;;;;;;;16.98;100.00;93014.25;5086242;28;20052;-73
2023/07/06 03:15:56;;;;;;;9.50;5.72;;;;;;;16.91;100.00;93010.06;5088627;28;20044;-73
2023/07/06 03:18:23;;;;;;;11.52;6.32;;;;;;;16.94;100.00;93011.38;5078569;28;20167;-73
2023/07/06 03:20:50;;;;;;;11.48;6.07;;;;;;;16.88;100.00;93010.56;5086158;28;20051;-73
2023/07/06 03:23:18;;;;;;;11.20;6.72;;;;;;;16.92;100.00;93022.00;5085021;28;20961;-72
2023/07/06 03:25:46;;;;;;;13.15;6.03;;;;;;;16.91;100.00;93022.25;5085131;28;20044;-72
2023/07/06 03:28:15;;;;;;;9.90;6.28;;;;;;;16.71;100.00;92982.22;5082457;28;20522;-72
2023/07/06 03:30:43;;;;;;;10.13;6.70;;;;;;;16.97;100.00;93021.25;5088793;28;20065;-72
2023/07/06 03:33:10;;;;;;;10.98;6.28;;;;;;;16.83;100.00;92988.00;5088049;28;20499;-72
2023/07/06 03:35:41;;;;;;;10.07;6.28;;;;;;;17.05;100.00;93022.59;5086395;28;20554;-72
2023/07/06 03:38:08;;;;;;;10.60;5.80;;;;;;;17.07;100.00;93023.91;5083444;28;20483;-72
2023/07/06 03:40:34;;;;;;;10.23;6.03;;;;;;;17.09;100.00;93021.06;5081130;28;20055;-72
2023/07/06 03:43:01;;;;;;;10.50;6.25;;;;;;;17.14;100.00;93009.91;5089877;28;20487;-72
2023/07/06 03:45:31;;;;;;;8.48;6.05;;;;;;;17.18;100.00;93016.16;5086625;28;20049;-72
2023/07/06 03:47:59;;;;;;;9.98;6.07;;;;;;;17.19;100.00;93010.72;5091006;28;20094;-72
2023/07/06 03:50:26;;;;;;;8.30;6.38;;;;;;;17.23;100.00;93013.56;5086707;28;20121;-73
2023/07/06 03:52:53;;;;;;;10.38;6.30;;;;;;;17.23;100.00;93010.97;5089370;28;20048;-73
2023/07/06 03:55:24;;;;;;;9.70;6.03;;;;;;;17.16;100.00;93003.44;5089303;28;20488;-73
2023/07/06 03:57:51;;;;;;;9.60;6.72;;;;;;;17.22;100.00;93005.00;5084069;28;20048;-73
2023/07/06 04:00:21;;;;;;;9.73;6.95;;;;;;;17.24;100.00;93002.16;5089755;28;20047;-73
2023/07/06 04:02:51;;;;;;;12.70;7.60;;;;;;;17.32;100.00;93006.06;5086520;28;20039;-73
2023/07/06 04:05:22;;;;;;;14.07;6.90;;;;;;;17.38;100.00;93006.84;5081190;28;20036;-73
2023/07/06 04:07:52;;;;;;;9.55;6.68;;;;;;;17.43;100.00;93012.03;5084865;28;20045;-73
2023/07/06 04:10:19;;;;;;;10.13;6.35;;;;;;;17.45;100.00;93000.38;5086942;28;20139;-73
2023/07/06 04:12:46;;;;;;;12.57;6.95;;;;;;;17.46;100.00;92999.31;5083675;28;20535;-73
2023/07/06 04:15:13;;;;;;;13.90;6.97;;;;;;;17.50;100.00;93005.56;5080057;28;20044;-72
2023/07/06 04:17:39;;;;;;;8.85;6.03;;;;;;;17.56;100.00;93000.38;5079664;28;20100;-73
2023/07/06 04:20:18;;;;;;;11.43;6.90;;;;;;;17.56;100.00;92998.56;5088170;28;20044;-72
2023/07/06 04:22:45;;;;;;;13.27;6.30;;;;;;;17.68;100.00;93008.69;5087163;28;20148;-72
2023/07/06 04:25:12;;;;;;;13.27;6.45;;;;;;;17.71;100.00;93007.41;5084089;28;20460;-72
2023/07/06 04:27:40;;;;;;;10.38;7.15;;;;;;;17.73;100.00;93002.75;5090162;28;20066;-72
2023/07/06 04:30:09;;;;;;;17.05;8.45;;;;;;;17.73;100.00;93003.50;5085217;28;20044;-72
2023/07/06 04:32:36;;;;;;;13.63;7.57;;;;;;;17.79;100.00;93001.72;5087670;28;20590;-73
2023/07/06 04:35:03;;;;;;;11.50;6.70;;;;;;;17.88;100.00;93009.75;5086894;28;20041;-73
2023/07/06 04:37:32;;;;;;;14.43;8.43;;;;;;;17.84;100.00;92999.13;5090151;28;20063;-73
2023/07/06 04:40:00;;;;;;;13.88;7.72;;;;;;;18.01;100.00;93013.66;5089465;28;20040;-73
2023/07/06 04:42:27;;;;;;;12.25;8.27;;;;;;;18.07;100.00;93010.06;5083733;28;20052;-73
2023/07/06 04:44:54;;;;;;;10.27;7.53;;;;;;;18.11;100.00;93016.28;5085159;28;20139;-73
2023/07/06 04:47:23;;;;;;;12.02;7.40;;;;;;;18.10;100.00;93008.75;5088149;28;20048;-73
2023/07/06 04:49:50;;;;;;;12.60;7.60;;;;;;;18.17;100.00;93011.84;5084177;28;20048;-73
2023/07/06 04:52:17;;;;;;;13.93;8.85;;;;;;;18.19;100.00;93007.16;5076955;28;20496;-73
2023/07/06 04:54:45;;;;;;;12.25;7.75;;;;;;;18.23;100.00;93008.22;5087607;28;20499;-73
2023/07/06 04:57:14;;;;;;;16.95;8.52;;;;;;;18.31;100.00;93012.09;5088589;28;20548;-73
2023/07/06 04:59:42;;;;;;;13.88;8.32;;;;;;;18.46;100.00;93021.69;5074683;28;20040;-74
2023/07/06 05:02:10;;;;;;;13.32;8.40;;;;;;;18.45;100.00;93011.53;5078923;28;20097;-73
2023/07/06 05:04:39;;;;;;;13.02;7.95;;;;;;;18.63;100.00;93026.59;5086348;28;20059;-73
2023/07/06 05:07:06;;;;;;;16.80;8.13;;;;;;;18.79;100.00;93032.53;5089675;28;20058;-72
2023/07/06 05:09:34;;;;;;;14.85;8.07;;;;;;;18.90;100.00;93041.09;5095559;28;20065;-73
2023/07/06 05:12:02;;;;;;;11.43;7.70;;;;;;;18.92;100.00;93046.03;5091395;28;20463;-73
2023/07/06 05:14:29;;;;;;;13.93;7.75;;;;;;;18.96;100.00;93044.44;5093598;28;20056;-73
2023/07/06 05:16:55;;;;;;;14.35;8.95;;;;;;;18.89;100.00;93044.72;5096661;28;20048;-73
2023/07/06 05:19:23;;;;;;;15.00;8.07;;;;;;;18.92;100.00;93048.63;5090825;28;20041;-72
2023/07/06 05:21:52;;;;;;;13.45;9.25;;;;;;;18.82;100.00;93037.22;5090335;28;20079;-73
2023/07/06 05:24:19;;;;;;;15.23;8.95;;;;;;;18.87;100.00;93041.63;5087579;28;20661;-73
2023/07/06 05:26:46;;;;;;;17.40;8.98;;;;;;;18.91;100.00;93047.06;5085425;28;20040;-72
2023/07/06 05:29:14;;;;;;;16.10;8.75;;;;;;;19.04;100.00;93045.75;5085531;28;20549;-73
2023/07/06 05:31:41;;;;;;;16.50;9.38;;;;;;;19.14;100.00;93052.75;5080518;28;20039;-73
2023/07/06 05:34:09;;;;;;;14.00;8.43;;;;;;;19.02;100.00;93040.03;5092137;28;20485;-72
2023/07/06 05:36:36;;;;;;;15.55;7.68;;;;;;;19.07;100.00;93053.81;5090690;28;20059;-72
2023/07/06 05:39:03;;;;;;;19.02;9.20;;;;;;;19.29;100.00;93049.28;5095816;28;20085;-72
2023/07/06 05:41:30;;;;;;;17.33;10.13;;;;;;;19.43;100.00;93058.09;5090021;28;20533;-72
2023/07/06 05:43:57;;;;;;;21.67;10.20;;;;;;;19.56;100.00;93063.75;5095166;28;20048;-72
2023/07/06 05:46:25;;;;;;;23.05;11.10;;;;;;;19.69;100.00;93064.97;5089011;28;20048;-72
2023/07/06 05:48:52;;;;;;;21.80;10.10;;;;;;;19.88;100.00;93065.91;5083547;28;20048;-72
2023/07/06 05:51:20;;;;;;;20.90;10.68;;;;;;;20.09;100.00;93063.16;5082012;28;20101;-73
2023/07/06 05:53:48;;;;;;;22.73;10.65;;;;;;;20.26;100.00;93073.22;5070201;28;20050;-72
2023/07/06 05:56:15;;;;;;;28.02;11.75;;;;;;;20.51;100.00;93066.22;5074389;28;20091;-72
2023/07/06 05:58:44;;;;;;;18.92;10.98;;;;;;;20.58;100.00;93059.88;5071843;28;20720;-73
2023/07/06 06:01:11;;;;;;;27.17;11.57;;;;;;;20.89;100.00;93081.28;5076374;28;20051;-73
2023/07/06 06:03:40;;;;;;;29.23;11.30;;;;;;;20.98;100.00;93073.63;5071963;28;20419;-73
2023/07/06 06:06:07;;;;;;;20.83;9.40;;;;;;;21.16;100.00;93077.31;5074140;28;20044;-73
2023/07/06 06:08:34;;;;;;;24.35;11.73;;;;;;;21.48;100.00;93075.91;5073771;28;20040;-73
2023/07/06 06:11:01;;;;;;;19.73;11.55;;;;;;;21.78;100.00;93080.25;5075664;28;20068;-73
2023/07/06 06:13:28;;;;;;;15.52;8.90;;;;;;;22.00;100.00;93082.28;5072485;28;20049;-73
2023/07/06 06:15:55;;;;;;;19.83;10.27;;;;;;;22.21;100.00;93088.00;5073081;28;20040;-73
2023/07/06 06:18:22;;;;;;;16.70;9.25;;;;;;;21.88;100.00;93080.09;5073216;28;20036;-72
2023/07/06 06:20:51;;;;;;;13.32;7.85;;;;;;;21.76;100.00;93054.41;5070742;28;20412;-72
2023/07/06 06:23:20;;;;;;;17.73;8.82;;;;;;;22.06;100.00;93083.78;5072658;28;20048;-72
2023/07/06 06:25:47;;;;;;;22.33;9.57;;;;;;;22.22;100.00;93080.94;5075187;28;20049;-73
2023/07/06 06:28:14;;;;;;;15.35;7.93;;;;;;;22.36;100.00;93086.97;5069929;28;20052;-73
2023/07/06 06:30:41;;;;;;;11.43;7.53;;;;;;;22.29;100.00;93086.56;5070063;28;20472;-72
2023/07/06 06:33:09;;;;;;;12.68;8.15;;;;;;;22.10;100.00;93076.13;5069482;28;20078;-72
2023/07/06 06:35:36;;;;;;;13.60;8.15;;;;;;;22.10;100.00;93081.38;5070441;28;20633;-72
2023/07/06 06:38:05;;;;;;;12.38;7.82;;;;;;;22.00;100.00;93072.59;5069552;28;20044;-72
2023/07/06 06:40:33;;;;;;;13.25;7.55;;;;;;;22.15;100.00;93071.63;5073770;28;20048;-72
2023/07/06 06:43:00;;;;;;;10.85;7.50;;;;;;;22.50;100.00;93073.91;5074296;28;20052;-73
2023/07/06 06:45:27;;;;;;;11.32;7.82;;;;;;;22.57;100.00;93076.19;5078254;28;20543;-72
2023/07/06 06:47:54;;;;;;;13.65;8.73;;;;;;;22.77;100.00;93071.69;5071026;28;20086;-72
2023/07/06 06:50:21;;;;;;;14.48;7.45;;;;;;;22.79;100.00;93070.34;5072626;28;20441;-72
2023/07/06 06:52:49;;;;;;;13.52;7.20;;;;;;;22.88;100.00;93067.81;5071097;28;20079;-72
2023/07/06 06:55:17;;;;;;;9.15;6.45;;;;;;;23.18;100.00;93072.75;5070874;28;20048;-72
2023/07/06 07:10:05;;;;;;;9.73;6.63;;;;;;;24.55;100.00;93075.59;5105652;27;20380;-73
2023/07/06 07:12:31;;;;;;;8.48;6.43;;;;;;;23.97;100.00;93077.97;5092736;28;20531;-72
2023/07/06 07:14:58;;;;;;;11.10;6.57;;;;;;;23.56;100.00;93069.16;5094838;28;20048;-72
2023/07/06 07:17:27;;;;;;;8.80;6.82;;;;;;;23.93;100.00;93066.53;5087216;28;20094;-72
2023/07/06 07:19:53;;;;;;;10.23;6.20;;;;;;;23.74;100.00;93067.44;5084909;28;20040;-72
2023/07/06 07:22:21;;;;;;;9.40;5.78;;;;;;;24.33;100.00;93069.28;5085251;28;20044;-72
2023/07/06 07:24:48;;;;;;;7.88;6.05;;;;;;;24.56;100.00;93064.00;5084969;28;20052;-73
2023/07/06 07:27:16;;;;;;;7.32;5.80;;;;;;;24.95;100.00;93067.75;5084690;28;20134;-72
2023/07/06 07:29:43;;;;;;;8.77;5.63;;;;;;;24.94;100.00;93074.09;5092486;28;20527;-72
2023/07/06 07:32:10;;;;;;;9.25;5.65;;;;;;;25.19;100.00;93069.22;5093810;28;20050;-72
2023/07/06 07:34:37;;;;;;;7.15;4.95;;;;;;;25.31;100.00;93078.38;5096407;28;20093;-72
2023/07/06 07:37:07;;;;;;;6.68;4.55;;;;;;;24.97;100.00;93077.97;5090450;28;20061;-73
2023/07/06 07:39:34;;;;;;;8.55;5.25;;;;;;;24.92;98.44;93059.72;5091211;28;20066;-72
2023/07/06 07:42:02;;;;;;;9.65;5.35;;;;;;;24.97;99.26;93072.72;5093535;28;20051;-72
2023/07/06 07:44:30;;;;;;;6.85;4.55;;;;;;;25.26;97.99;93065.41;5084767;28;20161;-72
2023/07/06 07:46:58;;;;;;;5.68;4.30;;;;;;;25.15;98.48;93063.06;5083983;28;20558;-72
2023/07/06 07:49:25;;;;;;;6.25;4.72;;;;;;;25.42;99.67;93055.22;5094209;28;20550;-73
2023/07/06 07:51:52;;;;;;;6.85;4.60;;;;;;;25.55;94.18;93072.75;5086243;28;20048;-73
2023/07/06 07:54:19;;;;;;;6.88;3.78;;;;;;;25.60;90.08;93083.13;5084272;28;20048;-72
2023/07/06 07:56:47;;;;;;;5.35;3.60;;;;;;;26.08;93.59;93064.88;5084951;28;20562;-73
2023/07/06 07:59:15;;;;;;;7.65;4.05;;;;;;;26.58;94.22;93072.56;5091229;28;20052;-73
2023/07/06 08:01:45;;;;;;;5.88;3.70;;;;;;;27.00;91.61;93074.63;5088528;28;20036;-73
2023/07/06 08:04:12;;;;;;;6.60;4.00;;;;;;;27.31;87.23;93079.59;5093189;28;20397;-72
2023/07/06 08:06:39;;;;;;;4.72;3.08;;;;;;;26.69;82.00;93089.59;5091633;28;20052;-73
2023/07/06 08:09:07;;;;;;;5.40;3.33;;;;;;;26.63;85.39;93077.66;5089137;28;20057;-72
2023/07/06 08:11:37;;;;;;;5.13;3.50;;;;;;;26.97;83.24;93085.81;5078097;28;20089;-72
2023/07/06 08:14:08;;;;;;;5.57;3.45;;;;;;;27.18;86.40;93070.81;5078627;28;20048;-73
2023/07/06 08:16:35;;;;;;;5.55;3.55;;;;;;;27.77;88.03;93071.09;5073530;28;20060;-73
2023/07/06 08:19:05;;;;;;;5.55;3.75;;;;;;;28.11;79.66;93079.88;5071305;28;20086;-73
2023/07/06 08:21:32;;;;;;;5.20;3.05;;;;;;;27.59;79.90;93076.50;5078371;28;20049;-73
2023/07/06 08:23:59;;;;;;;5.88;3.00;;;;;;;27.54;79.13;93076.66;5070332;28;20388;-73
2023/07/06 08:26:27;;;;;;;6.53;3.03;;;;;;;27.77;78.43;93073.75;5076208;28;20542;-73
2023/07/06 08:28:53;;;;;;;4.68;3.20;;;;;;;27.17;80.76;93073.78;5080432;28;20056;-73
2023/07/06 08:31:21;;;;;;;4.85;3.42;;;;;;;26.28;82.90;93068.75;5070100;28;20101;-73
2023/07/06 08:33:49;;;;;;;5.75;3.60;;;;;;;26.49;83.50;93070.75;5070300;28;20052;-73
2023/07/06 08:36:20;;;;;;;4.13;2.83;;;;;;;26.13;84.00;93067.34;5070810;28;20052;-74
2023/07/06 08:38:47;;;;;;;4.60;3.08;;;;;;;26.61;87.19;93049.00;5070091;28;20057;-74
2023/07/06 08:41:30;;;;;;;5.32;3.58;;;;;;;27.29;85.35;93057.28;5069109;28;20178;-73
2023/07/06 08:43:59;;;;;;;5.72;3.10;;;;;;;27.82;83.02;93068.28;5072307;28;20060;-73
2023/07/06 08:46:29;;;;;;;4.70;3.33;;;;;;;28.06;79.98;93069.50;5071489;28;20040;-73
2023/07/06 08:48:56;;;;;;;5.43;3.40;;;;;;;28.37;79.67;93067.56;5081562;28;20043;-73
2023/07/06 08:51:30;;;;;;;4.93;3.10;;;;;;;27.60;75.88;93074.66;5084350;28;20044;-74
2023/07/06 08:54:01;;;;;;;3.90;2.60;;;;;;;27.30;76.79;93056.97;5073490;28;20056;-74
2023/07/06 08:56:29;;;;;;;6.80;3.72;;;;;;;27.89;76.66;93065.13;5073550;28;20040;-73
2023/07/06 08:58:58;;;;;;;5.78;3.13;;;;;;;28.15;76.05;93064.16;5075547;28;20044;-74
2023/07/06 09:01:26;;;;;;;5.15;3.40;;;;;;;27.71;79.92;93060.00;5077473;28;20048;-74
2023/07/06 09:03:55;;;;;;;5.22;3.25;;;;;;;27.91;80.39;93041.81;5077452;28;20074;-74
2023/07/06 09:06:26;;;;;;;4.40;3.20;;;;;;;27.71;78.95;93056.56;5069108;28;20052;-75
2023/07/06 09:08:56;;;;;;;5.45;3.17;;;;;;;27.57;81.41;93068.13;5074020;28;20164;-74
2023/07/06 09:11:23;;;;;;;4.20;2.92;;;;;;;27.31;78.50;93065.66;5070945;28;20098;-74
2023/07/06 09:13:54;;;;;;;4.65;3.45;;;;;;;26.61;81.89;93064.81;5075787;28;20157;-74
2023/07/06 09:16:21;;;;;;;4.82;3.30;;;;;;;27.02;79.88;93067.94;5071049;28;20047;-74
2023/07/06 09:18:49;;;;;;;6.40;2.90;;;;;;;27.22;78.47;93073.59;5068893;28;20098;-74
2023/07/06 09:21:17;;;;;;;5.85;3.22;;;;;;;26.93;80.62;93067.19;5068383;28;20074;-75
2023/07/06 09:23:47;;;;;;;4.70;3.20;;;;;;;26.66;81.57;93059.38;5069472;28;20418;-75
2023/07/06 09:26:21;;;;;;;4.25;3.22;;;;;;;26.96;82.51;93066.59;5068508;28;20037;-75
2023/07/06 09:28:48;;;;;;;4.72;3.05;;;;;;;27.21;79.10;93061.50;5070814;28;20048;-75
2023/07/06 09:31:18;;;;;;;4.25;3.17;;;;;;;27.32;79.58;93043.47;5069202;28;20444;-74
2023/07/06 09:33:48;;;;;;;4.88;3.60;;;;;;;27.73;75.59;93067.59;5074149;28;20055;-74
2023/07/06 09:36:18;;;;;;;4.53;2.95;;;;;;;27.60;75.38;93069.38;5068768;28;20048;-74
2023/07/06 09:38:47;;;;;;;5.45;3.70;;;;;;;27.08;78.05;93068.56;5068169;28;20148;-75
2023/07/06 09:41:23;;;;;;;4.70;3.35;;;;;;;27.29;77.09;93065.19;5068712;28;20127;-75
2023/07/06 09:43:57;;;;;;;4.13;2.85;;;;;;;27.52;72.83;93065.69;5068639;28;20048;-74
2023/07/06 09:46:26;;;;;;;4.55;3.10;;;;;;;27.07;76.37;93030.88;5072825;28;20044;-75
2023/07/06 09:48:53;;;;;;;4.93;3.05;;;;;;;27.26;76.14;93057.91;5081059;28;20052;-75
2023/07/06 09:51:25;;;;;;;5.15;3.80;;;;;;;27.44;70.58;93055.97;5086126;28;20052;-75
2023/07/06 09:53:58;;;;;;;4.65;3.10;;;;;;;27.02;74.46;93048.75;5070574;28;20048;-75
2023/07/06 09:56:25;;;;;;;4.65;3.10;;;;;;;27.19;72.24;93018.88;5069027;28;20187;-75
2023/07/06 09:58:53;;;;;;;4.72;3.28;;;;;;;27.33;75.82;93040.50;5077878;28;20481;-75
2023/07/06 10:01:31;;;;;;;5.25;3.33;;;;;;;27.97;74.99;93032.63;5073204;28;20501;-74
2023/07/06 10:04:14;;;;;;;5.18;3.17;;;;;;;28.09;76.74;93033.78;5068551;28;20136;-74
2023/07/06 10:07:08;;;;;;;5.13;3.47;;;;;;;27.50;74.61;93023.03;5068966;28;20484;-75
2023/07/06 10:09:40;;;;;;;5.78;3.22;;;;;;;27.66;77.47;93017.97;5070011;28;20501;-75
2023/07/06 10:12:16;;;;;;;7.93;3.72;;;;;;;26.93;82.02;93015.28;5069221;28;20094;-75
2023/07/06 10:14:48;;;;;;;7.43;3.50;;;;;;;26.97;80.03;93017.28;5072214;28;20094;-75
2023/07/06 10:17:32;;;;;;;5.82;3.38;;;;;;;27.14;80.47;93024.31;5075913;28;20048;-75
2023/07/06 10:20:05;;;;;;;4.63;3.30;;;;;;;27.56;77.87;93015.69;5082237;28;20076;-75
2023/07/06 10:22:45;;;;;;;4.78;3.50;;;;;;;27.21;78.37;93035.91;5067918;28;20048;-75
2023/07/06 10:25:24;;;;;;;5.95;3.40;;;;;;;26.60;81.17;93023.75;5068842;28;20118;-75
2023/07/06 10:27:57;;;;;;;5.93;4.55;;;;;;;26.76;79.79;93034.53;5067635;28;20461;-75
2023/07/06 10:30:32;;;;;;;5.32;3.17;;;;;;;26.67;77.28;93042.47;5068486;28;20464;-75
2023/07/06 10:33:06;;;;;;;5.15;3.45;;;;;;;26.90;78.67;93034.31;5074661;28;20058;-75
2023/07/06 10:35:38;;;;;;;5.28;3.90;;;;;;;27.01;78.49;93023.44;5072769;28;20486;-75
2023/07/06 10:38:06;;;;;;;4.15;3.05;;;;;;;27.00;78.67;93012.16;5069003;28;20086;-75
2023/07/06 10:40:37;;;;;;;7.10;3.22;;;;;;;27.57;75.84;93033.03;5073445;28;20155;-75
2023/07/06 10:43:20;;;;;;;6.75;3.22;;;;;;;27.65;74.21;93036.75;5082204;28;20050;-75
2023/07/06 10:45:49;;;;;;;5.05;2.80;;;;;;;27.79;76.95;93034.63;5069874;28;20049;-74
2023/07/06 10:48:26;;;;;;;4.93;3.63;;;;;;;27.83;74.96;93043.47;5070644;28;20090;-74
2023/07/06 10:51:10;;;;;;;5.10;3.30;;;;;;;27.75;76.56;93041.63;5067462;28;20052;-74
2023/07/06 10:53:40;;;;;;;6.93;4.20;;;;;;;27.28;75.69;93038.06;5067026;28;20044;-74
2023/07/06 10:56:17;;;;;;;4.80;3.47;;;;;;;27.12;75.69;93024.63;5071867;28;20073;-74
2023/07/06 10:58:49;;;;;;;5.57;3.47;;;;;;;26.94;72.70;93016.06;5083790;28;20044;-74
2023/07/06 11:01:20;;;;;;;6.10;3.95;;;;;;;27.43;76.66;93017.47;5068268;28;20044;-74
2023/07/06 11:03:47;;;;;;;7.57;4.50;;;;;;;27.23;73.41;93017.16;5068998;28;20048;-74
2023/07/06 11:06:16;;;;;;;7.95;4.18;;;;;;;26.93;73.11;92993.41;5067274;28;20048;-74
2023/07/06 11:09:11;;;;;;;5.65;3.97;;;;;;;27.19;73.96;93011.75;5067205;28;20053;-74
2023/07/06 11:11:41;;;;;;;5.80;3.80;;;;;;;27.44;75.11;93003.22;5067035;28;20052;-74
2023/07/06 11:14:20;;;;;;;6.07;3.60;;;;;;;27.40;71.04;93002.31;5071506;28;20048;-74
2023/07/06 11:16:55;;;;;;;5.53;4.10;;;;;;;27.45;72.32;93000.22;5068203;28;20068;-73
2023/07/06 11:19:26;;;;;;;5.30;3.80;;;;;;;27.05;70.17;92971.66;5068464;28;20048;-74
2023/07/06 11:21:58;;;;;;;6.13;4.15;;;;;;;27.39;70.41;92990.97;5067854;28;20106;-74
2023/07/06 11:24:32;;;;;;;6.90;4.25;;;;;;;27.48;71.89;92986.41;5068014;28;20455;-74
2023/07/06 11:27:06;;;;;;;5.95;3.95;;;;;;;28.00;72.43;92987.09;5074754;28;20094;-74
2023/07/06 11:29:33;;;;;;;7.20;4.05;;;;;;;28.11;70.45;92976.91;5071024;28;20052;-74
2023/07/06 11:32:18;;;;;;;5.68;3.70;;;;;;;28.27;69.26;92995.56;5068480;28;20055;-74
2023/07/06 11:34:57;;;;;;;6.30;3.85;;;;;;;28.30;74.04;92980.16;5066978;28;20048;-74
2023/07/06 11:37:31;;;;;;;4.75;3.42;;;;;;;28.76;74.51;92993.31;5067294;28;20048;-74
2023/07/06 11:40:06;;;;;;;6.07;4.00;;;;;;;28.99;72.11;93009.53;5073762;28;20133;-74
2023/07/06 11:42:50;;;;;;;4.80;3.65;;;;;;;29.21;71.88;93005.63;5067197;28;20084;-74
2023/07/06 11:45:28;;;;;;;5.65;3.60;;;;;;;29.29;71.44;93003.22;5072709;28;20048;-74
2023/07/06 11:48:07;;;;;;;4.63;3.35;;;;;;;29.28;71.01;93004.31;5075517;28;20052;-74
2023/07/06 11:50:37;;;;;;;6.28;3.63;;;;;;;29.19;70.64;93012.38;5072646;28;20049;-74